Time;durP1;ratioP1;P1;durP2;ratioP2;P2;SDS_P1;SDS_P2;PMS_P1;PMS_P2;Temp;Humidity;BMP_temperature;BMP_pressure;BME280_temperature;BME280_humidity;BME280_pressure;Samples;Min_cycle;Max_cycle;Signal;HPM_P1;HPM_P2
2022/01/07 00:01:28;;;;;;;9.85;2.42;;;23.20;99.90;;;;;;5002725;28;20033;-75
2022/01/07 00:03:55;;;;;;;11.45;2.92;;;23.40;99.90;;;;;;5001918;28;20510;-74
2022/01/07 00:06:24;;;;;;;10.95;3.83;;;23.60;99.90;;;;;;4998895;28;20566;-75
2022/01/07 00:08:51;;;;;;;12.80;3.58;;;23.60;99.90;;;;;;5001787;28;20109;-76
2022/01/07 00:11:19;;;;;;;10.43;3.78;;;23.50;99.90;;;;;;5001816;28;20367;-69
2022/01/07 00:13:47;;;;;;;12.25;3.75;;;23.50;99.90;;;;;;5002060;28;20034;-76
2022/01/07 00:16:16;;;;;;;9.32;3.47;;;23.50;99.90;;;;;;5001337;28;20038;-76
2022/01/07 00:18:44;;;;;;;13.82;4.70;;;23.50;99.90;;;;;;4999231;28;20036;-76
2022/01/07 00:21:13;;;;;;;16.63;6.25;;;23.50;99.90;;;;;;5001759;28;20058;-74
2022/01/07 00:23:41;;;;;;;10.93;4.88;;;23.60;99.90;;;;;;5001808;28;20021;-77
2022/01/07 00:26:08;;;;;;;21.42;6.15;;;23.80;99.90;;;;;;5001813;28;20101;-75
2022/01/07 00:28:36;;;;;;;13.38;5.60;;;23.60;99.90;;;;;;5001140;28;20026;-74
2022/01/07 00:31:04;;;;;;;13.75;6.10;;;23.60;99.90;;;;;;4999062;28;20101;-75
2022/01/07 00:33:32;;;;;;;20.35;5.43;;;23.50;99.90;;;;;;5001797;28;20122;-74
2022/01/07 00:35:59;;;;;;;17.02;6.50;;;23.60;99.90;;;;;;5002798;28;20018;-74
2022/01/07 00:38:29;;;;;;;16.45;6.13;;;23.60;99.90;;;;;;5001858;28;20026;-75
2022/01/07 00:40:57;;;;;;;16.33;7.35;;;23.60;99.90;;;;;;5004337;28;20113;-75
2022/01/07 00:43:25;;;;;;;15.30;6.53;;;23.60;99.90;;;;;;5006549;28;20029;-75
2022/01/07 00:45:52;;;;;;;22.30;5.70;;;23.30;99.90;;;;;;5004993;28;20538;-76
2022/01/07 00:48:20;;;;;;;15.43;6.40;;;23.30;99.90;;;;;;5004512;28;20026;-72
2022/01/07 00:50:48;;;;;;;13.45;6.05;;;23.20;99.90;;;;;;5005974;28;20467;-71
2022/01/07 00:53:16;;;;;;;17.00;4.88;;;23.10;99.90;;;;;;5006564;28;20434;-76
2022/01/07 00:55:43;;;;;;;13.20;4.90;;;23.00;99.90;;;;;;5002496;28;20085;-70
2022/01/07 00:58:11;;;;;;;12.07;5.05;;;23.00;99.90;;;;;;5005288;28;20037;-74
2022/01/07 01:00:39;;;;;;;18.60;5.15;;;23.00;99.90;;;;;;5006454;28;20022;-71
2022/01/07 01:03:07;;;;;;;26.13;5.85;;;23.00;99.90;;;;;;5005091;28;20513;-70
2022/01/07 01:05:36;;;;;;;22.05;6.00;;;23.10;99.90;;;;;;5001291;28;20026;-74
2022/01/07 01:08:04;;;;;;;29.45;6.20;;;23.10;99.90;;;;;;5000908;28;20030;-71
2022/01/07 01:10:32;;;;;;;19.55;5.13;;;23.10;99.90;;;;;;5002544;28;20378;-73
2022/01/07 01:13:00;;;;;;;19.67;5.13;;;23.00;99.90;;;;;;5003992;28;20112;-71
2022/01/07 01:15:28;;;;;;;17.17;3.83;;;23.00;99.90;;;;;;5003916;28;20486;-71
2022/01/07 01:17:59;;;;;;;21.83;4.28;;;22.90;99.90;;;;;;5006056;28;20113;-71
2022/01/07 01:20:27;;;;;;;16.23;3.90;;;23.00;99.90;;;;;;5002798;28;20126;-72
2022/01/07 01:22:55;;;;;;;22.98;5.40;;;22.90;99.90;;;;;;5004498;28;20026;-71
2022/01/07 01:25:23;;;;;;;17.75;3.75;;;22.90;99.90;;;;;;5001611;28;20066;-72
2022/01/07 01:27:50;;;;;;;17.10;3.53;;;22.90;99.90;;;;;;5004648;28;20081;-70
2022/01/07 01:30:19;;;;;;;27.40;5.38;;;22.90;99.90;;;;;;4999431;28;20454;-71
2022/01/07 01:32:48;;;;;;;23.85;4.25;;;22.90;99.90;;;;;;4995950;28;20030;-74
2022/01/07 01:35:17;;;;;;;15.57;3.17;;;23.20;99.90;;;;;;4996674;28;20450;-74
2022/01/07 01:37:45;;;;;;;24.40;3.78;;;23.50;99.90;;;;;;4996447;28;20077;-73
2022/01/07 01:40:13;;;;;;;16.25;3.72;;;23.50;99.90;;;;;;4995937;28;20349;-70
2022/01/07 01:42:41;;;;;;;21.75;3.58;;;23.50;99.90;;;;;;4996142;28;20033;-71
2022/01/07 01:45:11;;;;;;;23.02;4.25;;;23.50;99.90;;;;;;4996338;28;20109;-72
2022/01/07 01:47:39;;;;;;;19.23;4.50;;;23.60;99.90;;;;;;4996003;28;20070;-73
2022/01/07 01:50:07;;;;;;;18.65;3.13;;;23.50;99.90;;;;;;4996051;28;20448;-70
2022/01/07 01:52:36;;;;;;;15.32;2.97;;;23.60;99.90;;;;;;4995443;28;20026;-70
2022/01/07 01:55:05;;;;;;;16.02;3.08;;;23.50;99.90;;;;;;4996336;28;20037;-70
2022/01/07 01:57:33;;;;;;;11.77;3.40;;;23.70;99.90;;;;;;4996239;28;20018;-72
2022/01/07 02:00:00;;;;;;;14.80;3.70;;;23.70;99.90;;;;;;4996086;28;20387;-73
2022/01/07 02:02:28;;;;;;;18.17;4.70;;;23.60;99.90;;;;;;4996360;28;20033;-73
2022/01/07 02:04:56;;;;;;;17.17;3.85;;;23.60;99.90;;;;;;4996149;28;20045;-73
2022/01/07 02:07:26;;;;;;;15.18;3.85;;;23.60;99.90;;;;;;4995635;28;20114;-77
2022/01/07 02:09:54;;;;;;;17.70;4.07;;;23.60;99.90;;;;;;5000720;28;20026;-70
2022/01/07 02:12:22;;;;;;;22.27;4.70;;;23.60;99.90;;;;;;5002053;28;20023;-74
2022/01/07 02:14:57;;;;;;;21.63;4.13;;;23.60;99.90;;;;;;5004753;28;20017;-71
2022/01/07 02:17:26;;;;;;;17.05;4.00;;;23.60;99.90;;;;;;5005412;28;20022;-73
2022/01/07 02:19:55;;;;;;;13.30;2.97;;;23.60;99.90;;;;;;5005628;28;20033;-73
2022/01/07 02:22:25;;;;;;;15.63;3.92;;;23.60;99.90;;;;;;5001753;28;20022;-69
2022/01/07 02:24:54;;;;;;;17.35;2.95;;;23.50;99.90;;;;;;5004470;28;20356;-73
2022/01/07 02:27:23;;;;;;;21.85;4.05;;;23.30;99.90;;;;;;5001070;28;20525;-73
2022/01/07 02:29:51;;;;;;;20.73;3.63;;;23.30;99.90;;;;;;5004684;28;20459;-70
2022/01/07 02:32:20;;;;;;;19.98;4.53;;;23.30;99.90;;;;;;5005841;28;20018;-75
2022/01/07 02:34:48;;;;;;;16.92;3.65;;;23.20;99.90;;;;;;5004574;28;20070;-73
2022/01/07 02:37:16;;;;;;;17.35;3.90;;;23.40;99.90;;;;;;5003623;28;20080;-74
2022/01/07 02:39:45;;;;;;;20.02;4.63;;;23.50;99.90;;;;;;5005340;28;20022;-73
2022/01/07 02:42:13;;;;;;;18.00;3.75;;;23.50;99.90;;;;;;5005278;28;20467;-74
2022/01/07 02:44:41;;;;;;;28.30;5.18;;;23.50;99.90;;;;;;5000472;28;20027;-73
2022/01/07 02:47:09;;;;;;;14.68;3.42;;;23.60;99.90;;;;;;5004215;28;20424;-72
2022/01/07 02:49:36;;;;;;;24.33;4.25;;;23.80;99.90;;;;;;5005489;28;20022;-74
2022/01/07 02:52:04;;;;;;;21.90;3.55;;;23.90;99.90;;;;;;5004013;28;20109;-71
2022/01/07 02:54:32;;;;;;;22.80;4.53;;;24.30;99.90;;;;;;5003961;28;20021;-71
2022/01/07 02:57:00;;;;;;;15.27;3.72;;;24.10;99.90;;;;;;5005244;28;20049;-70
2022/01/07 02:59:27;;;;;;;16.67;3.90;;;24.10;99.90;;;;;;5004256;28;20068;-71
2022/01/07 03:01:55;;;;;;;17.73;3.47;;;24.20;99.90;;;;;;5001717;28;20026;-69
2022/01/07 03:04:26;;;;;;;26.15;4.80;;;24.10;99.90;;;;;;5001090;28;20018;-73
2022/01/07 03:06:54;;;;;;;18.60;4.38;;;24.20;99.90;;;;;;5003117;28;20498;-69
2022/01/07 03:09:22;;;;;;;19.83;4.28;;;24.30;99.90;;;;;;4998069;28;20018;-70
2022/01/07 03:11:50;;;;;;;27.15;6.40;;;24.40;99.90;;;;;;4999903;28;20053;-71
2022/01/07 03:14:17;;;;;;;26.52;5.40;;;24.40;99.90;;;;;;5006533;28;20022;-70
2022/01/07 03:16:45;;;;;;;16.52;3.50;;;24.40;99.90;;;;;;5007520;28;20044;-70
2022/01/07 03:19:13;;;;;;;25.55;4.65;;;24.40;99.90;;;;;;5007146;28;20483;-70
2022/01/07 03:21:41;;;;;;;16.17;3.97;;;24.60;99.90;;;;;;5007367;28;20017;-70
2022/01/07 03:24:08;;;;;;;19.30;3.95;;;24.70;99.90;;;;;;5004899;28;20538;-69
2022/01/07 03:26:36;;;;;;;18.23;4.60;;;24.80;99.90;;;;;;5004400;28;20491;-70
2022/01/07 03:29:04;;;;;;;21.15;3.58;;;24.70;99.90;;;;;;5000822;28;20072;-70
2022/01/07 03:31:31;;;;;;;16.77;3.53;;;24.60;99.90;;;;;;5003381;28;20026;-70
2022/01/07 03:33:59;;;;;;;18.73;4.25;;;24.80;99.90;;;;;;5004664;28;20032;-69
2022/01/07 03:36:27;;;;;;;21.33;5.45;;;25.10;99.90;;;;;;5003459;28;20019;-69
2022/01/07 03:38:57;;;;;;;19.05;3.85;;;25.50;99.90;;;;;;5002801;28;20498;-70
2022/01/07 03:41:26;;;;;;;17.63;5.10;;;25.70;99.90;;;;;;5000677;28;20454;-69
2022/01/07 03:43:54;;;;;;;19.10;4.35;;;25.60;99.90;;;;;;5002793;28;20028;-70
2022/01/07 03:46:22;;;;;;;22.67;5.07;;;25.50;99.90;;;;;;4999841;28;20073;-71
2022/01/07 03:48:49;;;;;;;15.82;3.67;;;25.30;99.90;;;;;;5003444;28;20030;-70
2022/01/07 03:51:17;;;;;;;17.13;4.18;;;25.30;99.90;;;;;;5004361;28;20077;-70
2022/01/07 03:53:45;;;;;;;19.75;3.63;;;25.30;99.90;;;;;;5002684;28;20026;-69
2022/01/07 03:56:17;;;;;;;14.50;3.85;;;25.30;99.90;;;;;;5002826;28;20018;-69
2022/01/07 03:58:46;;;;;;;22.08;3.10;;;25.10;99.90;;;;;;5004049;28;20021;-69
2022/01/07 04:01:13;;;;;;;14.88;3.30;;;25.10;99.90;;;;;;5003996;28;20022;-68
2022/01/07 04:03:41;;;;;;;12.25;3.22;;;25.10;99.90;;;;;;5002198;28;20037;-69
2022/01/07 04:06:09;;;;;;;17.58;4.22;;;24.90;99.90;;;;;;5003158;28;20022;-69
2022/01/07 04:08:37;;;;;;;19.00;3.70;;;24.80;99.90;;;;;;5004076;28;20034;-71
2022/01/07 04:11:04;;;;;;;15.85;3.55;;;24.90;99.90;;;;;;5001464;28;20023;-69
2022/01/07 04:13:32;;;;;;;12.88;3.83;;;25.30;99.90;;;;;;5002579;28;20030;-68
2022/01/07 04:16:00;;;;;;;17.02;4.07;;;25.40;99.90;;;;;;5003800;28;20018;-69
2022/01/07 04:18:27;;;;;;;15.73;3.88;;;25.40;99.90;;;;;;5002883;28;20030;-68
2022/01/07 04:20:55;;;;;;;22.95;4.05;;;25.60;99.90;;;;;;5002290;28;20048;-69
2022/01/07 04:23:23;;;;;;;13.02;3.55;;;25.80;99.90;;;;;;4999784;28;20384;-69
2022/01/07 04:25:50;;;;;;;14.45;3.40;;;26.00;99.90;;;;;;5002677;28;20045;-69
2022/01/07 04:28:19;;;;;;;10.05;2.95;;;25.90;99.90;;;;;;5003915;28;20029;-69
2022/01/07 04:30:47;;;;;;;20.08;3.38;;;25.90;99.90;;;;;;5002797;28;20057;-69
2022/01/07 04:33:22;;;;;;;19.88;4.57;;;25.90;99.90;;;;;;5002358;28;20029;-70
2022/01/07 04:35:50;;;;;;;20.52;4.70;;;25.80;99.90;;;;;;5001485;28;20391;-70
2022/01/07 04:38:17;;;;;;;21.92;3.70;;;25.90;99.90;;;;;;5001886;28;20031;-70
2022/01/07 04:40:45;;;;;;;14.35;3.58;;;26.10;99.90;;;;;;5003594;28;20026;-69
2022/01/07 04:43:13;;;;;;;22.48;3.33;;;26.10;99.90;;;;;;5003464;28;20019;-77
2022/01/07 04:45:41;;;;;;;19.50;4.85;;;26.00;99.90;;;;;;4993842;28;20072;-73
2022/01/07 04:48:09;;;;;;;20.65;3.67;;;25.80;99.90;;;;;;4997970;28;20033;-70
2022/01/07 04:50:37;;;;;;;16.63;4.03;;;25.80;99.90;;;;;;4996343;28;20030;-72
2022/01/07 04:53:06;;;;;;;15.07;4.25;;;25.80;99.90;;;;;;4999939;28;20022;-69
2022/01/07 04:55:38;;;;;;;17.13;3.80;;;25.70;99.90;;;;;;5002284;28;20018;-69
2022/01/07 04:58:11;;;;;;;18.48;3.55;;;25.60;99.90;;;;;;5000128;28;20014;-74
2022/01/07 05:00:41;;;;;;;16.58;4.18;;;25.50;99.90;;;;;;5001651;28;20038;-73
2022/01/07 05:03:10;;;;;;;19.83;4.60;;;25.60;99.90;;;;;;5002623;28;20390;-75
2022/01/07 05:05:38;;;;;;;21.92;3.75;;;25.90;99.90;;;;;;5003669;28;20355;-70
2022/01/07 05:08:06;;;;;;;18.27;4.30;;;25.90;99.90;;;;;;5001767;28;20038;-74
2022/01/07 05:10:35;;;;;;;19.42;3.95;;;25.70;99.90;;;;;;5001973;28;20021;-73
2022/01/07 05:13:02;;;;;;;21.13;4.45;;;25.50;99.90;;;;;;5003514;28;20092;-69
2022/01/07 05:15:30;;;;;;;13.57;3.38;;;25.50;99.90;;;;;;5002561;28;20022;-70
2022/01/07 05:17:58;;;;;;;13.60;3.67;;;25.50;99.90;;;;;;5001517;28;20128;-70
2022/01/07 05:20:25;;;;;;;15.48;4.20;;;25.50;99.90;;;;;;5002816;28;20018;-70
2022/01/07 05:22:53;;;;;;;20.95;4.45;;;25.40;99.90;;;;;;5002989;28;20463;-71
2022/01/07 05:25:21;;;;;;;14.95;3.60;;;25.20;99.90;;;;;;5002021;28;20050;-69
2022/01/07 05:27:48;;;;;;;18.80;5.07;;;25.10;99.90;;;;;;5005585;28;20483;-74
2022/01/07 05:30:18;;;;;;;19.73;4.80;;;25.10;99.90;;;;;;5006675;28;20030;-76
2022/01/07 05:32:45;;;;;;;21.70;4.57;;;25.00;99.90;;;;;;5003242;28;20424;-70
2022/01/07 05:35:13;;;;;;;16.15;3.92;;;25.00;99.90;;;;;;5005379;28;20014;-69
2022/01/07 05:37:41;;;;;;;14.75;3.85;;;24.90;99.90;;;;;;5006675;28;20136;-69
2022/01/07 05:40:09;;;;;;;13.52;4.20;;;24.80;99.90;;;;;;5005336;28;20029;-71
2022/01/07 05:42:37;;;;;;;17.95;4.57;;;24.80;99.90;;;;;;5004754;28;20081;-69
2022/01/07 05:45:05;;;;;;;21.95;4.47;;;24.80;99.90;;;;;;5002644;28;20089;-69
2022/01/07 05:47:33;;;;;;;20.35;4.72;;;24.60;99.90;;;;;;5005069;28;20129;-69
2022/01/07 05:50:01;;;;;;;24.02;3.85;;;24.40;99.90;;;;;;4998274;28;20065;-69
2022/01/07 05:52:28;;;;;;;14.98;3.95;;;24.30;99.90;;;;;;4995954;28;20038;-70
2022/01/07 05:54:56;;;;;;;14.63;2.95;;;24.10;99.90;;;;;;4996024;28;20026;-69
2022/01/07 05:57:24;;;;;;;25.55;5.03;;;24.10;99.90;;;;;;4996124;28;20097;-69
2022/01/07 05:59:52;;;;;;;21.10;3.80;;;23.90;99.90;;;;;;4995769;28;20080;-71
2022/01/07 06:02:19;;;;;;;15.50;3.78;;;23.90;99.90;;;;;;4995222;28;20356;-72
2022/01/07 06:04:47;;;;;;;20.77;3.72;;;23.90;99.90;;;;;;4995969;28;20022;-72
2022/01/07 06:07:14;;;;;;;22.33;4.38;;;24.00;99.90;;;;;;4995777;28;20430;-69
2022/01/07 06:09:42;;;;;;;22.60;4.50;;;23.90;99.90;;;;;;5001745;28;20493;-74
2022/01/07 06:12:10;;;;;;;17.23;3.80;;;24.00;99.90;;;;;;5001693;28;20455;-72
2022/01/07 06:14:38;;;;;;;16.13;3.38;;;24.00;99.90;;;;;;5004521;28;20053;-74
2022/01/07 06:17:08;;;;;;;25.73;4.70;;;24.00;99.90;;;;;;5003925;28;20025;-72
2022/01/07 06:19:36;;;;;;;29.75;4.32;;;24.00;99.90;;;;;;5003644;28;20014;-71
2022/01/07 06:22:05;;;;;;;18.00;4.38;;;24.20;99.90;;;;;;5005784;28;20014;-69
2022/01/07 06:24:32;;;;;;;24.40;4.15;;;24.30;99.90;;;;;;5005400;28;20395;-70
2022/01/07 06:27:00;;;;;;;25.88;5.05;;;24.30;99.90;;;;;;5003384;28;20129;-73
2022/01/07 06:29:28;;;;;;;18.73;4.40;;;24.40;99.90;;;;;;4996404;28;20056;-74
2022/01/07 06:31:55;;;;;;;19.15;4.90;;;24.30;99.90;;;;;;4994758;28;20018;-74
2022/01/07 06:34:23;;;;;;;23.05;4.25;;;24.40;99.90;;;;;;4992818;28;20026;-74
2022/01/07 06:36:51;;;;;;;34.42;4.80;;;24.70;99.90;;;;;;4994830;28;20379;-72
2022/01/07 06:39:20;;;;;;;19.88;4.75;;;24.80;99.90;;;;;;4995387;28;20030;-71
2022/01/07 06:41:48;;;;;;;20.30;4.38;;;24.70;99.90;;;;;;4995480;28;20029;-73
2022/01/07 06:44:17;;;;;;;25.75;3.15;;;24.60;99.90;;;;;;5000466;28;20015;-70
2022/01/07 06:46:45;;;;;;;13.55;4.43;;;24.50;99.90;;;;;;5000369;28;20026;-70
2022/01/07 06:49:15;;;;;;;35.22;5.10;;;24.50;99.90;;;;;;5004146;28;20014;-70
2022/01/07 06:51:44;;;;;;;18.70;3.70;;;24.50;99.90;;;;;;5000821;28;20073;-69
2022/01/07 06:54:13;;;;;;;31.15;5.88;;;24.50;99.90;;;;;;5004088;28;20463;-69
2022/01/07 06:56:42;;;;;;;18.70;4.65;;;24.70;99.90;;;;;;5014200;28;20064;-69
2022/01/07 06:59:13;;;;;;;23.35;4.28;;;24.80;99.90;;;;;;5014379;28;20014;-72
2022/01/07 07:01:42;;;;;;;21.40;5.10;;;24.80;99.90;;;;;;5014662;28;20370;-71
2022/01/07 07:04:10;;;;;;;15.98;3.53;;;24.80;99.90;;;;;;5014518;28;20022;-71
2022/01/07 07:06:38;;;;;;;24.13;4.10;;;24.60;99.90;;;;;;4990038;28;20038;-69
2022/01/07 07:09:06;;;;;;;22.23;4.03;;;24.40;99.90;;;;;;4994070;28;20102;-69
2022/01/07 07:11:34;;;;;;;17.58;3.90;;;24.50;99.90;;;;;;4993576;28;20080;-70
2022/01/07 07:14:02;;;;;;;17.38;4.05;;;24.60;99.90;;;;;;4994415;28;20018;-77
2022/01/07 07:16:30;;;;;;;20.15;3.97;;;24.60;99.90;;;;;;4994961;28;20026;-68
2022/01/07 07:18:57;;;;;;;26.80;4.72;;;24.60;99.90;;;;;;4994744;28;20066;-68
2022/01/07 07:21:25;;;;;;;22.58;4.00;;;24.50;99.90;;;;;;4994625;28;20019;-69
2022/01/07 07:23:53;;;;;;;21.65;4.03;;;24.30;99.90;;;;;;4994239;28;20105;-68
2022/01/07 07:26:21;;;;;;;29.83;5.53;;;24.10;99.90;;;;;;4993747;28;20050;-71
2022/01/07 07:28:49;;;;;;;21.40;4.50;;;24.10;99.90;;;;;;4994265;28;20030;-69
2022/01/07 07:31:18;;;;;;;24.67;4.35;;;24.00;99.90;;;;;;4999509;28;20089;-68
2022/01/07 07:36:30;;;;;;;27.80;4.20;;;24.00;99.90;;;;;;5003745;28;20023;-68
2022/01/07 07:39:23;;;;;;;17.55;4.72;;;23.90;99.90;;;;;;5003130;28;20034;-69
2022/01/07 07:41:51;;;;;;;16.98;4.05;;;23.80;99.90;;;;;;4999337;28;20093;-68
2022/01/07 07:44:19;;;;;;;28.02;4.95;;;23.70;99.90;;;;;;5002238;28;20025;-68
2022/01/07 07:46:46;;;;;;;19.70;4.47;;;23.60;99.90;;;;;;5001489;28;20049;-69
2022/01/07 07:49:15;;;;;;;29.17;4.28;;;23.60;99.90;;;;;;5002634;28;20021;-70
2022/01/07 07:51:43;;;;;;;32.90;4.53;;;23.60;99.90;;;;;;5004535;28;20026;-69
2022/01/07 07:54:11;;;;;;;22.92;4.38;;;23.50;99.90;;;;;;5002919;28;20423;-69
2022/01/07 07:56:39;;;;;;;21.80;5.10;;;23.40;99.90;;;;;;5002840;28;20057;-69
2022/01/07 07:59:06;;;;;;;27.33;4.75;;;23.30;99.90;;;;;;4992564;28;20080;-68
2022/01/07 08:01:34;;;;;;;18.92;3.95;;;23.20;99.90;;;;;;4993416;28;20023;-71
2022/01/07 08:04:01;;;;;;;24.33;5.05;;;23.10;99.90;;;;;;4992874;28;20449;-69
2022/01/07 08:06:28;;;;;;;35.70;5.28;;;23.00;99.90;;;;;;4993490;28;20065;-73
2022/01/07 08:08:56;;;;;;;19.08;4.75;;;23.00;99.90;;;;;;4993995;28;20050;-74
2022/01/07 08:11:31;;;;;;;27.05;4.82;;;23.00;99.90;;;;;;4990597;28;20033;-73
2022/01/07 08:16:44;;;;;;;26.45;4.72;;;22.90;99.90;;;;;;4992179;28;20085;-70
2022/01/07 08:19:11;;;;;;;23.85;5.07;;;22.90;99.90;;;;;;4991949;28;20036;-69
2022/01/07 08:21:38;;;;;;;19.35;4.55;;;22.90;99.90;;;;;;4991722;28;20046;-72
2022/01/07 08:24:06;;;;;;;28.40;5.13;;;22.80;99.90;;;;;;4992145;28;20034;-70
2022/01/07 08:26:34;;;;;;;26.73;5.15;;;22.80;99.90;;;;;;4991847;28;20046;-71
2022/01/07 08:29:06;;;;;;;20.70;4.60;;;22.80;99.90;;;;;;4991882;28;20026;-68
2022/01/07 08:36:48;;;;;;;20.75;3.88;;;22.70;99.90;;;;;;4992240;28;20080;-71
2022/01/07 08:39:16;;;;;;;24.02;5.95;;;22.70;99.90;;;;;;4992092;28;20554;-74
2022/01/07 08:41:43;;;;;;;30.23;5.10;;;22.70;99.90;;;;;;4992643;28;20050;-68
2022/01/07 08:44:12;;;;;;;21.02;4.63;;;22.70;99.90;;;;;;4992742;28;20022;-69
2022/01/07 08:46:39;;;;;;;17.08;4.53;;;22.60;99.90;;;;;;4992401;28;20030;-69
2022/01/07 08:49:07;;;;;;;30.58;5.32;;;22.60;99.90;;;;;;4992605;28;20391;-69
2022/01/07 08:51:35;;;;;;;19.90;5.28;;;22.60;99.90;;;;;;4992777;28;20034;-69
2022/01/07 08:54:02;;;;;;;24.90;3.83;;;22.50;99.90;;;;;;4991451;28;20428;-69
2022/01/07 08:56:29;;;;;;;24.45;4.55;;;22.50;99.90;;;;;;4992643;28;20041;-70
2022/01/07 08:58:58;;;;;;;25.85;5.95;;;22.50;99.90;;;;;;4992619;28;20050;-70
2022/01/07 09:01:28;;;;;;;19.60;4.88;;;22.50;99.90;;;;;;4994972;28;20026;-69
2022/01/07 09:03:56;;;;;;;14.65;4.97;;;22.40;99.90;;;;;;4996112;28;20023;-73
2022/01/07 09:06:23;;;;;;;25.55;5.63;;;22.40;99.90;;;;;;4995741;28;20495;-72
2022/01/07 09:08:51;;;;;;;20.65;4.75;;;22.40;99.90;;;;;;4996140;28;20029;-72
2022/01/07 09:11:18;;;;;;;15.43;4.25;;;22.40;99.90;;;;;;4995813;28;20027;-69
2022/01/07 09:13:48;;;;;;;30.13;4.45;;;22.40;99.90;;;;;;4992065;28;20030;-69
2022/01/07 09:16:17;;;;;;;27.73;4.78;;;22.30;99.90;;;;;;4993145;28;20029;-67
2022/01/07 09:18:44;;;;;;;21.05;5.05;;;22.30;99.90;;;;;;4994668;28;20037;-71
2022/01/07 09:21:11;;;;;;;17.30;4.30;;;22.40;99.90;;;;;;4995986;28;20463;-71
2022/01/07 09:23:41;;;;;;;24.98;5.53;;;22.30;99.90;;;;;;4996008;28;20037;-73
2022/01/07 09:26:09;;;;;;;19.95;4.30;;;22.30;99.90;;;;;;4995780;28;20483;-68
2022/01/07 09:28:37;;;;;;;24.63;3.90;;;22.30;99.90;;;;;;4995707;28;20264;-70
2022/01/07 09:31:04;;;;;;;25.98;5.45;;;22.30;99.90;;;;;;4984949;28;20027;-69
2022/01/07 09:33:32;;;;;;;17.45;5.15;;;22.20;99.90;;;;;;4976191;28;20393;-68
2022/01/07 09:35:59;;;;;;;23.55;4.30;;;22.20;99.90;;;;;;4975816;28;20021;-69
2022/01/07 09:38:26;;;;;;;26.95;5.70;;;22.20;99.90;;;;;;4983033;28;20031;-71
2022/01/07 09:40:54;;;;;;;25.02;3.95;;;22.20;99.90;;;;;;4975479;28;20027;-69
2022/01/07 09:43:22;;;;;;;17.83;4.07;;;22.20;99.90;;;;;;4975431;28;20094;-72
2022/01/07 09:45:50;;;;;;;25.63;4.88;;;22.20;99.90;;;;;;4975776;28;20081;-69
2022/01/07 09:48:17;;;;;;;23.50;5.60;;;22.20;99.90;;;;;;4975528;28;20034;-69
2022/01/07 09:50:45;;;;;;;19.23;4.72;;;22.20;99.90;;;;;;4975375;28;20023;-69
2022/01/07 09:53:15;;;;;;;22.40;4.82;;;22.20;99.90;;;;;;4975918;28;20019;-74
2022/01/07 09:55:44;;;;;;;25.58;5.05;;;22.20;99.90;;;;;;4975849;28;20490;-72
2022/01/07 09:58:13;;;;;;;21.05;4.75;;;22.20;99.90;;;;;;4975842;28;20023;-69
2022/01/07 10:00:46;;;;;;;20.73;4.13;;;22.20;99.90;;;;;;4975147;28;20105;-69
2022/01/07 10:03:16;;;;;;;25.00;4.65;;;22.20;99.90;;;;;;4975746;28;20419;-69
2022/01/07 10:05:52;;;;;;;20.38;4.15;;;22.10;99.90;;;;;;4975935;28;20023;-71
2022/01/07 10:08:29;;;;;;;26.63;4.55;;;22.10;99.90;;;;;;4986436;28;20049;-70
2022/01/07 10:11:19;;;;;;;19.23;5.05;;;22.10;99.90;;;;;;4983131;28;20030;-72
2022/01/07 10:13:48;;;;;;;26.73;4.57;;;22.10;99.90;;;;;;4978900;28;20027;-68
2022/01/07 10:16:21;;;;;;;25.02;5.53;;;22.10;99.90;;;;;;4974829;28;20015;-71
2022/01/07 10:18:50;;;;;;;22.42;5.38;;;22.00;99.90;;;;;;4986310;28;20523;-71
2022/01/07 10:21:18;;;;;;;25.92;6.15;;;22.10;99.90;;;;;;4977474;28;20039;-69
2022/01/07 10:23:46;;;;;;;29.15;5.45;;;22.10;99.90;;;;;;4974522;28;20029;-71
2022/01/07 10:26:16;;;;;;;15.95;4.35;;;22.00;99.90;;;;;;4973723;28;20117;-69
2022/01/07 10:28:45;;;;;;;19.65;5.05;;;22.00;99.90;;;;;;4974221;28;20073;-68
2022/01/07 10:31:21;;;;;;;23.55;5.82;;;22.00;99.90;;;;;;4973991;28;20026;-69
2022/01/07 10:33:49;;;;;;;18.98;4.82;;;22.00;99.90;;;;;;4975430;28;20110;-70
2022/01/07 10:36:19;;;;;;;23.17;4.45;;;22.00;99.90;;;;;;4975909;28;20042;-68
2022/01/07 10:38:53;;;;;;;20.42;4.75;;;22.00;99.90;;;;;;4975307;28;20396;-68
2022/01/07 10:41:22;;;;;;;18.08;4.15;;;22.00;99.90;;;;;;4979228;28;20088;-68
2022/01/07 10:43:52;;;;;;;14.60;3.03;;;22.00;99.90;;;;;;4993592;28;20022;-69
2022/01/07 10:46:31;;;;;;;22.17;5.68;;;22.00;99.90;;;;;;4991946;28;20050;-69
2022/01/07 10:49:05;;;;;;;28.88;5.65;;;22.00;99.90;;;;;;4992294;28;20097;-68
2022/01/07 10:51:41;;;;;;;26.67;4.57;;;22.00;99.90;;;;;;4973875;28;20019;-70
2022/01/07 10:54:16;;;;;;;33.13;5.18;;;22.00;99.90;;;;;;4974025;28;20448;-68
2022/01/07 10:56:51;;;;;;;;;;;22.00;99.90;;;;;;5003477;28;20061;-70
2022/01/07 10:59:20;;;;;;;18.58;3.90;;;22.00;99.90;;;;;;4993570;28;19913;-68
2022/01/07 11:01:51;;;;;;;21.55;5.15;;;22.00;99.90;;;;;;4993322;28;20022;-70
2022/01/07 11:04:30;;;;;;;23.50;5.32;;;22.00;99.90;;;;;;4990686;28;20483;-68
2022/01/07 11:06:59;;;;;;;20.95;4.72;;;22.00;99.90;;;;;;4993442;28;20030;-70
2022/01/07 11:09:27;;;;;;;21.17;4.10;;;22.00;99.90;;;;;;4992657;28;20033;-70
2022/01/07 11:12:01;;;;;;;17.77;4.93;;;22.00;99.90;;;;;;4989338;28;20030;-73
2022/01/07 11:14:32;;;;;;;19.13;4.30;;;22.00;99.90;;;;;;4986455;28;20023;-69
2022/01/07 11:17:04;;;;;;;21.75;4.68;;;22.00;99.90;;;;;;4974396;28;20141;-68
2022/01/07 11:19:39;;;;;;;23.13;4.80;;;22.00;99.90;;;;;;4975412;28;20018;-70
2022/01/07 11:22:11;;;;;;;22.45;4.68;;;22.00;99.90;;;;;;4976469;28;20018;-72
2022/01/07 11:24:59;;;;;;;21.98;5.28;;;22.00;99.90;;;;;;4973776;28;20182;-72
2022/01/07 11:27:28;;;;;;;20.63;5.53;;;22.00;99.90;;;;;;4974063;28;20443;-72
2022/01/07 11:30:04;;;;;;;15.80;4.45;;;22.00;99.90;;;;;;4974357;28;20145;-71
2022/01/07 11:32:36;;;;;;;23.45;3.50;;;22.10;99.90;;;;;;4974257;28;20033;-70
2022/01/07 11:35:23;;;;;;;23.40;4.50;;;22.00;99.90;;;;;;4974168;28;20165;-72
2022/01/07 11:38:00;;;;;;;22.98;5.72;;;22.10;99.90;;;;;;4992600;28;20038;-74
2022/01/07 11:40:33;;;;;;;24.60;5.18;;;22.10;99.90;;;;;;4992545;28;20666;-70
2022/01/07 11:43:13;;;;;;;26.17;5.55;;;22.10;99.90;;;;;;4993620;28;20023;-73
2022/01/07 11:45:43;;;;;;;18.85;5.70;;;22.00;99.90;;;;;;4992575;28;20424;-69
2022/01/07 11:48:16;;;;;;;27.23;4.25;;;22.00;99.90;;;;;;4991250;28;20113;-68
2022/01/07 11:51:01;;;;;;;23.02;5.28;;;22.00;99.90;;;;;;4992751;28;20018;-69
2022/01/07 11:53:51;;;;;;;31.15;4.63;;;22.00;99.90;;;;;;4988596;28;20040;-73
2022/01/07 11:56:30;;;;;;;17.67;4.93;;;22.00;99.90;;;;;;4989982;28;20515;-72
2022/01/07 11:58:59;;;;;;;28.63;5.40;;;22.00;99.90;;;;;;4991984;28;20534;-69
2022/01/07 12:01:31;;;;;;;25.80;5.90;;;22.00;99.90;;;;;;4993314;28;20093;-69
2022/01/07 12:04:26;;;;;;;21.05;5.30;;;22.00;99.90;;;;;;4993012;28;20014;-74
2022/01/07 12:06:59;;;;;;;23.30;3.80;;;22.00;99.90;;;;;;5003655;28;20577;-68
2022/01/07 12:09:35;;;;;;;16.92;4.43;;;22.10;99.90;;;;;;5001095;28;20027;-69
2022/01/07 12:12:11;;;;;;;26.17;5.55;;;22.00;99.90;;;;;;4998350;28;21110;-70
2022/01/07 12:14:53;;;;;;;25.73;5.57;;;22.00;99.90;;;;;;4993932;28;20030;-69
2022/01/07 12:17:22;;;;;;;18.52;5.53;;;22.00;99.90;;;;;;4994018;28;20026;-73
2022/01/07 12:19:51;;;;;;;21.40;4.90;;;22.00;99.90;;;;;;4994142;28;20432;-68
2022/01/07 12:22:20;;;;;;;14.02;4.93;;;22.00;99.90;;;;;;4993636;28;20058;-68
2022/01/07 12:24:49;;;;;;;21.63;4.88;;;22.00;99.90;;;;;;4993713;28;20106;-68
2022/01/07 12:27:24;;;;;;;19.58;5.22;;;22.00;99.90;;;;;;4993403;28;20054;-70
2022/01/07 12:29:54;;;;;;;23.13;4.78;;;22.10;99.90;;;;;;4993820;28;20034;-69
2022/01/07 12:32:38;;;;;;;22.85;5.68;;;22.10;99.90;;;;;;4994030;28;20371;-69
2022/01/07 12:35:08;;;;;;;22.48;5.38;;;22.10;99.90;;;;;;4993004;28;20038;-69
2022/01/07 12:37:37;;;;;;;13.63;2.78;;;22.10;99.90;;;;;;4998490;28;20054;-68
2022/01/07 12:40:07;;;;;;;12.65;2.17;;;21.80;99.90;;;;;;4997760;28;20026;-68
2022/01/07 12:42:41;;;;;;;7.10;1.23;;;21.70;99.90;;;;;;4997880;28;20038;-68
2022/01/07 12:45:14;;;;;;;12.35;1.10;;;21.50;99.90;;;;;;4997795;28;20015;-73
2022/01/07 12:48:05;;;;;;;4.85;1.67;;;21.40;99.90;;;;;;4996073;28;20395;-69
2022/01/07 12:50:36;;;;;;;14.70;1.48;;;21.20;99.90;;;;;;4996692;28;20027;-77
2022/01/07 12:53:06;;;;;;;5.93;0.60;;;20.90;99.90;;;;;;4997735;28;20061;-73
2022/01/07 12:55:34;;;;;;;3.47;0.68;;;20.60;99.90;;;;;;4997653;28;20027;-74
2022/01/07 12:58:04;;;;;;;3.90;0.80;;;20.40;99.90;;;;;;4997448;28;20026;-75
2022/01/07 13:00:36;;;;;;;4.82;0.77;;;20.30;99.90;;;;;;4997438;28;20026;-69